< < Back
Terminal Aerodrome Forecast


Current Version              Previous Versions:   1  2  3  4  5  6  7  8  9  

Terminal Aerodrome Forecast

979
FTUS42 KMLB 281100
TAFMCO
TAF
KMCO 281124Z 2812/2912 25006KT P6SM FEW020 SCT250
     FM281500 26012KT P6SM SCT035 SCT250
     FM290100 25006KT P6SM FEW040 SCT250=

Latest METAR

583
SAUS70 KWBC 290200 RRC
MTRMCO
METAR KMCO 290153Z 24007KT 10SM FEW040 FEW250 29/23 A3000 RMK AO2 SLP157
T02940228


USA.gov is the U.S. government's official web portal to all federal, state and local government web resources and services.